sensor_id;sensor_type;location;lat;lon;timestamp;P1;durP1;ratioP1;P2;durP2;ratioP2
59728;SDS011;45588;51.598;5.618;2023-02-18T00:00:35;75.07;;;53.78;;
59728;SDS011;45588;51.598;5.618;2023-02-18T00:03:00;76.57;;;54.87;;
59728;SDS011;45588;51.598;5.618;2023-02-18T00:05:27;77.60;;;55.93;;
59728;SDS011;45588;51.598;5.618;2023-02-18T00:07:52;83.65;;;59.33;;
59728;SDS011;45588;51.598;5.618;2023-02-18T00:10:17;79.50;;;58.97;;
59728;SDS011;45588;51.598;5.618;2023-02-18T00:12:43;78.88;;;59.10;;
59728;SDS011;45588;51.598;5.618;2023-02-18T00:15:08;84.43;;;59.97;;
59728;SDS011;45588;51.598;5.618;2023-02-18T00:17:34;84.35;;;59.92;;
59728;SDS011;45588;51.598;5.618;2023-02-18T00:19:59;83.18;;;60.60;;
59728;SDS011;45588;51.598;5.618;2023-02-18T00:22:24;87.90;;;60.67;;
59728;SDS011;45588;51.598;5.618;2023-02-18T00:24:49;86.70;;;59.33;;
59728;SDS011;45588;51.598;5.618;2023-02-18T00:27:15;80.32;;;59.17;;
59728;SDS011;45588;51.598;5.618;2023-02-18T00:29:40;86.63;;;62.33;;
59728;SDS011;45588;51.598;5.618;2023-02-18T00:32:05;86.90;;;60.60;;
59728;SDS011;45588;51.598;5.618;2023-02-18T00:34:31;81.93;;;59.25;;
59728;SDS011;45588;51.598;5.618;2023-02-18T00:36:56;86.68;;;59.90;;
59728;SDS011;45588;51.598;5.618;2023-02-18T00:39:21;88.93;;;59.95;;
59728;SDS011;45588;51.598;5.618;2023-02-18T00:41:46;86.40;;;59.13;;
59728;SDS011;45588;51.598;5.618;2023-02-18T00:44:11;87.13;;;60.97;;
59728;SDS011;45588;51.598;5.618;2023-02-18T00:46:37;84.55;;;59.60;;
59728;SDS011;45588;51.598;5.618;2023-02-18T00:49:02;84.95;;;59.90;;
59728;SDS011;45588;51.598;5.618;2023-02-18T00:51:28;88.75;;;61.53;;
59728;SDS011;45588;51.598;5.618;2023-02-18T00:53:53;90.13;;;62.50;;
59728;SDS011;45588;51.598;5.618;2023-02-18T00:56:18;87.47;;;63.38;;
59728;SDS011;45588;51.598;5.618;2023-02-18T00:58:43;89.57;;;62.13;;
59728;SDS011;45588;51.598;5.618;2023-02-18T01:01:09;86.75;;;60.50;;
59728;SDS011;45588;51.598;5.618;2023-02-18T01:03:35;92.63;;;62.15;;
59728;SDS011;45588;51.598;5.618;2023-02-18T01:06:01;92.65;;;63.40;;
59728;SDS011;45588;51.598;5.618;2023-02-18T01:08:26;72.53;;;31.77;;
59728;SDS011;45588;51.598;5.618;2023-02-18T01:10:52;88.75;;;60.10;;
59728;SDS011;45588;51.598;5.618;2023-02-18T01:13:17;89.30;;;61.50;;
59728;SDS011;45588;51.598;5.618;2023-02-18T01:15:42;97.85;;;63.33;;
59728;SDS011;45588;51.598;5.618;2023-02-18T01:18:08;90.10;;;61.58;;
59728;SDS011;45588;51.598;5.618;2023-02-18T01:20:34;91.20;;;60.67;;
59728;SDS011;45588;51.598;5.618;2023-02-18T01:23:00;89.22;;;61.17;;
59728;SDS011;45588;51.598;5.618;2023-02-18T01:25:25;94.55;;;62.88;;
59728;SDS011;45588;51.598;5.618;2023-02-18T01:27:50;98.83;;;66.33;;
59728;SDS011;45588;51.598;5.618;2023-02-18T01:30:16;95.55;;;62.25;;
59728;SDS011;45588;51.598;5.618;2023-02-18T01:32:41;94.65;;;60.78;;
59728;SDS011;45588;51.598;5.618;2023-02-18T01:35:07;92.25;;;62.00;;
59728;SDS011;45588;51.598;5.618;2023-02-18T01:37:34;91.22;;;60.90;;
59728;SDS011;45588;51.598;5.618;2023-02-18T01:39:59;87.63;;;57.90;;
59728;SDS011;45588;51.598;5.618;2023-02-18T01:42:26;93.63;;;59.38;;
59728;SDS011;45588;51.598;5.618;2023-02-18T01:44:51;85.55;;;56.67;;
59728;SDS011;45588;51.598;5.618;2023-02-18T01:47:17;90.07;;;57.28;;
59728;SDS011;45588;51.598;5.618;2023-02-18T01:49:42;90.78;;;56.00;;
59728;SDS011;45588;51.598;5.618;2023-02-18T01:52:31;88.35;;;55.63;;
59728;SDS011;45588;51.598;5.618;2023-02-18T01:54:57;66.82;;;28.30;;
59728;SDS011;45588;51.598;5.618;2023-02-18T01:57:27;85.47;;;53.65;;
59728;SDS011;45588;51.598;5.618;2023-02-18T01:59:54;72.63;;;28.08;;
59728;SDS011;45588;51.598;5.618;2023-02-18T02:02:20;82.72;;;51.65;;
59728;SDS011;45588;51.598;5.618;2023-02-18T02:04:46;79.63;;;50.25;;
59728;SDS011;45588;51.598;5.618;2023-02-18T02:07:12;76.82;;;48.28;;
59728;SDS011;45588;51.598;5.618;2023-02-18T02:09:37;76.35;;;45.83;;
59728;SDS011;45588;51.598;5.618;2023-02-18T02:12:28;77.38;;;44.90;;
59728;SDS011;45588;51.598;5.618;2023-02-18T02:20:28;49.90;;;20.25;;
59728;SDS011;45588;51.598;5.618;2023-02-18T02:39:04;64.78;;;41.25;;
59728;SDS011;45588;51.598;5.618;2023-02-18T02:44:23;67.65;;;40.90;;
59728;SDS011;45588;51.598;5.618;2023-02-18T02:46:53;74.10;;;42.78;;
59728;SDS011;45588;51.598;5.618;2023-02-18T02:49:35;74.05;;;43.30;;
59728;SDS011;45588;51.598;5.618;2023-02-18T02:54:29;72.88;;;43.30;;
59728;SDS011;45588;51.598;5.618;2023-02-18T02:57:05;46.28;;;19.77;;
59728;SDS011;45588;51.598;5.618;2023-02-18T02:59:30;75.80;;;43.28;;
59728;SDS011;45588;51.598;5.618;2023-02-18T03:12:24;64.63;;;41.67;;
59728;SDS011;45588;51.598;5.618;2023-02-18T03:17:29;62.03;;;39.95;;
59728;SDS011;45588;51.598;5.618;2023-02-18T03:19:56;61.78;;;38.85;;
59728;SDS011;45588;51.598;5.618;2023-02-18T03:22:26;52.13;;;34.78;;
59728;SDS011;45588;51.598;5.618;2023-02-18T03:24:53;49.40;;;33.38;;
59728;SDS011;45588;51.598;5.618;2023-02-18T03:27:21;48.92;;;33.67;;
59728;SDS011;45588;51.598;5.618;2023-02-18T03:29:48;32.67;;;14.52;;
59728;SDS011;45588;51.598;5.618;2023-02-18T03:32:16;45.33;;;31.10;;
59728;SDS011;45588;51.598;5.618;2023-02-18T03:34:43;41.15;;;29.25;;
59728;SDS011;45588;51.598;5.618;2023-02-18T03:37:11;26.63;;;11.77;;
59728;SDS011;45588;51.598;5.618;2023-02-18T03:39:38;35.50;;;24.58;;
59728;SDS011;45588;51.598;5.618;2023-02-18T03:42:05;34.08;;;22.13;;
59728;SDS011;45588;51.598;5.618;2023-02-18T03:44:31;31.85;;;23.80;;
59728;SDS011;45588;51.598;5.618;2023-02-18T03:46:56;31.33;;;22.65;;
59728;SDS011;45588;51.598;5.618;2023-02-18T03:49:21;28.50;;;20.05;;
59728;SDS011;45588;51.598;5.618;2023-02-18T03:51:47;26.67;;;19.50;;
59728;SDS011;45588;51.598;5.618;2023-02-18T03:54:12;24.77;;;17.17;;
59728;SDS011;45588;51.598;5.618;2023-02-18T03:56:38;24.85;;;17.70;;
59728;SDS011;45588;51.598;5.618;2023-02-18T03:59:04;16.60;;;8.20;;
59728;SDS011;45588;51.598;5.618;2023-02-18T04:01:29;22.52;;;15.27;;
59728;SDS011;45588;51.598;5.618;2023-02-18T04:03:54;19.07;;;14.27;;
59728;SDS011;45588;51.598;5.618;2023-02-18T04:06:20;18.60;;;14.18;;
59728;SDS011;45588;51.598;5.618;2023-02-18T04:08:45;18.00;;;12.75;;
59728;SDS011;45588;51.598;5.618;2023-02-18T04:11:11;16.40;;;11.85;;
59728;SDS011;45588;51.598;5.618;2023-02-18T04:13:36;19.67;;;11.85;;
59728;SDS011;45588;51.598;5.618;2023-02-18T04:16:01;9.35;;;4.63;;
59728;SDS011;45588;51.598;5.618;2023-02-18T04:18:26;12.07;;;5.75;;
59728;SDS011;45588;51.598;5.618;2023-02-18T04:20:51;12.32;;;9.05;;
59728;SDS011;45588;51.598;5.618;2023-02-18T04:23:16;12.27;;;8.90;;
59728;SDS011;45588;51.598;5.618;2023-02-18T04:25:42;7.97;;;3.67;;
59728;SDS011;45588;51.598;5.618;2023-02-18T04:28:07;11.98;;;8.23;;
59728;SDS011;45588;51.598;5.618;2023-02-18T04:30:35;10.88;;;8.43;;
59728;SDS011;45588;51.598;5.618;2023-02-18T04:33:00;11.20;;;9.10;;
59728;SDS011;45588;51.598;5.618;2023-02-18T04:35:25;10.77;;;8.40;;
59728;SDS011;45588;51.598;5.618;2023-02-18T04:37:50;10.48;;;7.82;;
59728;SDS011;45588;51.598;5.618;2023-02-18T04:40:16;10.27;;;7.43;;
59728;SDS011;45588;51.598;5.618;2023-02-18T04:42:41;9.43;;;7.45;;
59728;SDS011;45588;51.598;5.618;2023-02-18T04:45:06;9.23;;;6.80;;
59728;SDS011;45588;51.598;5.618;2023-02-18T04:47:31;9.98;;;7.07;;
59728;SDS011;45588;51.598;5.618;2023-02-18T04:49:57;8.88;;;6.60;;
59728;SDS011;45588;51.598;5.618;2023-02-18T04:52:22;10.37;;;7.07;;
59728;SDS011;45588;51.598;5.618;2023-02-18T04:54:48;9.73;;;7.27;;
59728;SDS011;45588;51.598;5.618;2023-02-18T04:57:13;8.27;;;6.55;;
59728;SDS011;45588;51.598;5.618;2023-02-18T04:59:38;9.57;;;7.32;;
59728;SDS011;45588;51.598;5.618;2023-02-18T05:02:03;9.60;;;6.43;;
59728;SDS011;45588;51.598;5.618;2023-02-18T05:04:29;6.67;;;3.40;;
59728;SDS011;45588;51.598;5.618;2023-02-18T05:06:54;7.27;;;6.50;;
59728;SDS011;45588;51.598;5.618;2023-02-18T05:09:19;8.60;;;6.35;;
59728;SDS011;45588;51.598;5.618;2023-02-18T05:11:44;7.80;;;6.30;;
59728;SDS011;45588;51.598;5.618;2023-02-18T05:14:09;9.07;;;6.50;;
59728;SDS011;45588;51.598;5.618;2023-02-18T05:16:35;6.85;;;2.97;;
59728;SDS011;45588;51.598;5.618;2023-02-18T05:19:00;8.80;;;6.82;;
59728;SDS011;45588;51.598;5.618;2023-02-18T05:21:25;9.30;;;6.43;;
59728;SDS011;45588;51.598;5.618;2023-02-18T05:23:50;9.97;;;7.30;;
59728;SDS011;45588;51.598;5.618;2023-02-18T05:26:15;7.40;;;6.03;;
59728;SDS011;45588;51.598;5.618;2023-02-18T05:28:41;8.38;;;6.60;;
59728;SDS011;45588;51.598;5.618;2023-02-18T05:31:06;7.60;;;5.90;;
59728;SDS011;45588;51.598;5.618;2023-02-18T05:33:31;8.02;;;6.60;;
59728;SDS011;45588;51.598;5.618;2023-02-18T05:35:56;8.25;;;6.82;;
59728;SDS011;45588;51.598;5.618;2023-02-18T05:38:21;7.57;;;6.53;;
59728;SDS011;45588;51.598;5.618;2023-02-18T05:40:47;8.30;;;6.13;;
59728;SDS011;45588;51.598;5.618;2023-02-18T05:43:12;10.23;;;3.43;;
59728;SDS011;45588;51.598;5.618;2023-02-18T05:45:37;7.40;;;6.32;;
59728;SDS011;45588;51.598;5.618;2023-02-18T05:48:02;5.43;;;3.30;;
59728;SDS011;45588;51.598;5.618;2023-02-18T05:50:28;7.85;;;6.57;;
59728;SDS011;45588;51.598;5.618;2023-02-18T05:52:53;6.23;;;5.60;;
59728;SDS011;45588;51.598;5.618;2023-02-18T05:55:18;8.52;;;6.53;;
59728;SDS011;45588;51.598;5.618;2023-02-18T05:57:44;9.65;;;7.13;;
59728;SDS011;45588;51.598;5.618;2023-02-18T06:00:09;6.95;;;3.72;;
59728;SDS011;45588;51.598;5.618;2023-02-18T06:02:35;8.27;;;6.65;;
59728;SDS011;45588;51.598;5.618;2023-02-18T06:05:00;10.50;;;7.47;;
59728;SDS011;45588;51.598;5.618;2023-02-18T06:07:25;10.25;;;7.95;;
59728;SDS011;45588;51.598;5.618;2023-02-18T06:09:50;9.40;;;7.65;;
59728;SDS011;45588;51.598;5.618;2023-02-18T06:12:15;11.35;;;8.80;;
59728;SDS011;45588;51.598;5.618;2023-02-18T06:14:41;11.35;;;8.70;;
59728;SDS011;45588;51.598;5.618;2023-02-18T06:17:07;8.00;;;4.13;;
59728;SDS011;45588;51.598;5.618;2023-02-18T06:19:33;13.50;;;10.18;;
59728;SDS011;45588;51.598;5.618;2023-02-18T06:21:58;13.48;;;10.30;;
59728;SDS011;45588;51.598;5.618;2023-02-18T06:24:23;13.80;;;10.17;;
59728;SDS011;45588;51.598;5.618;2023-02-18T06:26:48;14.43;;;11.40;;
59728;SDS011;45588;51.598;5.618;2023-02-18T06:29:14;11.85;;;6.18;;
59728;SDS011;45588;51.598;5.618;2023-02-18T06:31:39;16.13;;;12.47;;
59728;SDS011;45588;51.598;5.618;2023-02-18T06:34:04;17.17;;;12.93;;
59728;SDS011;45588;51.598;5.618;2023-02-18T06:36:29;18.13;;;13.37;;
59728;SDS011;45588;51.598;5.618;2023-02-18T06:38:54;18.00;;;13.77;;
59728;SDS011;45588;51.598;5.618;2023-02-18T06:41:21;20.65;;;14.68;;
59728;SDS011;45588;51.598;5.618;2023-02-18T06:43:46;14.88;;;7.18;;
59728;SDS011;45588;51.598;5.618;2023-02-18T06:46:12;20.17;;;15.90;;
59728;SDS011;45588;51.598;5.618;2023-02-18T06:48:37;21.42;;;15.98;;
59728;SDS011;45588;51.598;5.618;2023-02-18T06:51:03;14.70;;;7.22;;
59728;SDS011;45588;51.598;5.618;2023-02-18T06:53:28;21.45;;;10.88;;
59728;SDS011;45588;51.598;5.618;2023-02-18T06:55:53;25.60;;;19.85;;
59728;SDS011;45588;51.598;5.618;2023-02-18T06:58:18;28.45;;;20.67;;
59728;SDS011;45588;51.598;5.618;2023-02-18T07:00:43;17.15;;;9.30;;
59728;SDS011;45588;51.598;5.618;2023-02-18T07:03:10;29.17;;;21.77;;
59728;SDS011;45588;51.598;5.618;2023-02-18T07:05:35;30.70;;;23.50;;
59728;SDS011;45588;51.598;5.618;2023-02-18T07:08:00;25.77;;;22.97;;
59728;SDS011;45588;51.598;5.618;2023-02-18T07:10:25;28.23;;;22.98;;
59728;SDS011;45588;51.598;5.618;2023-02-18T07:12:51;27.47;;;23.83;;
59728;SDS011;45588;51.598;5.618;2023-02-18T07:15:16;27.08;;;22.55;;
59728;SDS011;45588;51.598;5.618;2023-02-18T07:17:41;30.45;;;23.35;;
59728;SDS011;45588;51.598;5.618;2023-02-18T07:20:06;27.30;;;22.27;;
59728;SDS011;45588;51.598;5.618;2023-02-18T07:22:32;25.42;;;22.67;;
59728;SDS011;45588;51.598;5.618;2023-02-18T07:24:57;19.67;;;10.75;;
59728;SDS011;45588;51.598;5.618;2023-02-18T07:27:22;24.25;;;19.30;;
59728;SDS011;45588;51.598;5.618;2023-02-18T07:29:47;23.00;;;19.03;;
59728;SDS011;45588;51.598;5.618;2023-02-18T07:32:13;17.27;;;10.93;;
59728;SDS011;45588;51.598;5.618;2023-02-18T07:34:39;18.30;;;10.65;;
59728;SDS011;45588;51.598;5.618;2023-02-18T07:37:04;24.48;;;21.83;;
59728;SDS011;45588;51.598;5.618;2023-02-18T07:39:33;30.85;;;24.40;;
59728;SDS011;45588;51.598;5.618;2023-02-18T07:41:58;27.77;;;24.80;;
59728;SDS011;45588;51.598;5.618;2023-02-18T07:44:24;30.65;;;26.30;;
59728;SDS011;45588;51.598;5.618;2023-02-18T07:46:51;32.80;;;26.48;;
59728;SDS011;45588;51.598;5.618;2023-02-18T07:49:17;33.08;;;27.75;;
59728;SDS011;45588;51.598;5.618;2023-02-18T07:51:42;27.15;;;13.60;;
59728;SDS011;45588;51.598;5.618;2023-02-18T07:54:07;35.15;;;31.30;;
59728;SDS011;45588;51.598;5.618;2023-02-18T07:56:32;36.27;;;32.30;;
59728;SDS011;45588;51.598;5.618;2023-02-18T07:58:58;36.78;;;32.35;;
59728;SDS011;45588;51.598;5.618;2023-02-18T08:01:23;45.05;;;35.40;;
59728;SDS011;45588;51.598;5.618;2023-02-18T08:03:48;30.33;;;15.60;;
59728;SDS011;45588;51.598;5.618;2023-02-18T08:06:25;38.33;;;34.22;;
59728;SDS011;45588;51.598;5.618;2023-02-18T08:08:50;38.55;;;32.38;;
59728;SDS011;45588;51.598;5.618;2023-02-18T08:11:16;32.20;;;16.73;;
59728;SDS011;45588;51.598;5.618;2023-02-18T08:13:41;41.22;;;31.48;;
59728;SDS011;45588;51.598;5.618;2023-02-18T08:16:06;37.50;;;29.97;;
59728;SDS011;45588;51.598;5.618;2023-02-18T08:18:31;40.37;;;29.00;;
59728;SDS011;45588;51.598;5.618;2023-02-18T08:20:57;36.65;;;26.60;;
59728;SDS011;45588;51.598;5.618;2023-02-18T08:23:22;31.30;;;24.53;;
59728;SDS011;45588;51.598;5.618;2023-02-18T08:25:49;34.63;;;22.40;;
59728;SDS011;45588;51.598;5.618;2023-02-18T08:28:16;28.98;;;21.27;;
59728;SDS011;45588;51.598;5.618;2023-02-18T08:30:45;25.80;;;10.90;;
59728;SDS011;45588;51.598;5.618;2023-02-18T08:33:10;32.13;;;19.15;;
59728;SDS011;45588;51.598;5.618;2023-02-18T08:35:35;32.85;;;19.55;;
59728;SDS011;45588;51.598;5.618;2023-02-18T08:38:01;29.17;;;18.25;;
59728;SDS011;45588;51.598;5.618;2023-02-18T08:40:26;37.33;;;18.17;;
59728;SDS011;45588;51.598;5.618;2023-02-18T08:42:51;28.40;;;16.97;;
59728;SDS011;45588;51.598;5.618;2023-02-18T08:45:17;30.17;;;16.83;;
59728;SDS011;45588;51.598;5.618;2023-02-18T08:47:42;40.30;;;17.40;;
59728;SDS011;45588;51.598;5.618;2023-02-18T08:50:08;33.80;;;16.70;;
59728;SDS011;45588;51.598;5.618;2023-02-18T08:52:33;30.52;;;16.05;;
59728;SDS011;45588;51.598;5.618;2023-02-18T08:54:58;26.48;;;17.17;;
59728;SDS011;45588;51.598;5.618;2023-02-18T08:57:23;19.02;;;9.38;;
59728;SDS011;45588;51.598;5.618;2023-02-18T08:59:48;31.33;;;16.80;;
59728;SDS011;45588;51.598;5.618;2023-02-18T09:02:14;27.33;;;16.48;;
59728;SDS011;45588;51.598;5.618;2023-02-18T09:04:39;29.08;;;17.75;;
59728;SDS011;45588;51.598;5.618;2023-02-18T09:07:04;26.50;;;15.70;;
59728;SDS011;45588;51.598;5.618;2023-02-18T09:09:30;27.13;;;15.48;;
59728;SDS011;45588;51.598;5.618;2023-02-18T09:11:55;30.85;;;15.02;;
59728;SDS011;45588;51.598;5.618;2023-02-18T09:14:20;22.70;;;8.93;;
59728;SDS011;45588;51.598;5.618;2023-02-18T09:16:45;31.33;;;15.65;;
59728;SDS011;45588;51.598;5.618;2023-02-18T09:19:10;27.03;;;14.93;;
59728;SDS011;45588;51.598;5.618;2023-02-18T09:21:36;17.37;;;7.33;;
59728;SDS011;45588;51.598;5.618;2023-02-18T09:24:01;30.45;;;14.23;;
59728;SDS011;45588;51.598;5.618;2023-02-18T09:26:26;25.20;;;12.75;;
59728;SDS011;45588;51.598;5.618;2023-02-18T09:28:52;30.13;;;14.23;;
59728;SDS011;45588;51.598;5.618;2023-02-18T09:31:19;30.73;;;13.00;;
59728;SDS011;45588;51.598;5.618;2023-02-18T09:33:45;26.10;;;13.13;;
59728;SDS011;45588;51.598;5.618;2023-02-18T09:36:10;30.83;;;13.57;;
59728;SDS011;45588;51.598;5.618;2023-02-18T09:38:36;17.77;;;7.28;;
59728;SDS011;45588;51.598;5.618;2023-02-18T09:41:02;26.40;;;12.97;;
59728;SDS011;45588;51.598;5.618;2023-02-18T09:45:53;28.03;;;13.13;;
59728;SDS011;45588;51.598;5.618;2023-02-18T09:48:20;29.27;;;12.35;;
59728;SDS011;45588;51.598;5.618;2023-02-18T09:50:50;22.90;;;10.13;;
59728;SDS011;45588;51.598;5.618;2023-02-18T09:53:16;27.50;;;11.20;;
59728;SDS011;45588;51.598;5.618;2023-02-18T09:55:41;24.17;;;10.02;;
59728;SDS011;45588;51.598;5.618;2023-02-18T09:58:15;19.85;;;8.85;;
59728;SDS011;45588;51.598;5.618;2023-02-18T10:00:45;13.15;;;5.70;;
59728;SDS011;45588;51.598;5.618;2023-02-18T10:05:38;25.23;;;9.95;;
59728;SDS011;45588;51.598;5.618;2023-02-18T10:08:06;24.70;;;8.80;;
59728;SDS011;45588;51.598;5.618;2023-02-18T10:10:34;12.77;;;4.57;;
59728;SDS011;45588;51.598;5.618;2023-02-18T10:13:01;20.27;;;8.38;;
59728;SDS011;45588;51.598;5.618;2023-02-18T10:15:27;19.77;;;8.02;;
59728;SDS011;45588;51.598;5.618;2023-02-18T10:17:53;16.25;;;4.93;;
59728;SDS011;45588;51.598;5.618;2023-02-18T10:20:20;21.02;;;7.72;;
59728;SDS011;45588;51.598;5.618;2023-02-18T10:22:46;17.48;;;7.68;;
59728;SDS011;45588;51.598;5.618;2023-02-18T10:25:16;16.80;;;7.78;;
59728;SDS011;45588;51.598;5.618;2023-02-18T10:27:42;15.70;;;6.45;;
59728;SDS011;45588;51.598;5.618;2023-02-18T10:32:34;17.42;;;4.40;;
59728;SDS011;45588;51.598;5.618;2023-02-18T10:35:14;16.13;;;4.60;;
59728;SDS011;45588;51.598;5.618;2023-02-18T10:40:37;22.15;;;7.03;;
59728;SDS011;45588;51.598;5.618;2023-02-18T10:43:13;18.42;;;7.38;;
59728;SDS011;45588;51.598;5.618;2023-02-18T10:53:11;21.08;;;7.65;;
59728;SDS011;45588;51.598;5.618;2023-02-18T10:55:41;17.83;;;7.45;;
59728;SDS011;45588;51.598;5.618;2023-02-18T10:58:25;19.70;;;8.48;;
59728;SDS011;45588;51.598;5.618;2023-02-18T11:00:50;20.15;;;8.38;;
59728;SDS011;45588;51.598;5.618;2023-02-18T11:03:16;15.88;;;5.28;;
59728;SDS011;45588;51.598;5.618;2023-02-18T11:05:42;11.82;;;5.00;;
59728;SDS011;45588;51.598;5.618;2023-02-18T11:08:08;19.50;;;8.93;;
59728;SDS011;45588;51.598;5.618;2023-02-18T11:10:37;18.85;;;9.13;;
59728;SDS011;45588;51.598;5.618;2023-02-18T11:13:04;20.08;;;9.05;;
59728;SDS011;45588;51.598;5.618;2023-02-18T11:15:30;18.02;;;9.93;;
59728;SDS011;45588;51.598;5.618;2023-02-18T11:17:56;30.10;;;10.55;;
59728;SDS011;45588;51.598;5.618;2023-02-18T11:22:48;18.00;;;10.48;;
59728;SDS011;45588;51.598;5.618;2023-02-18T11:25:21;29.23;;;10.82;;
59728;SDS011;45588;51.598;5.618;2023-02-18T11:27:54;21.50;;;11.38;;
59728;SDS011;45588;51.598;5.618;2023-02-18T11:30:42;25.02;;;12.18;;
59728;SDS011;45588;51.598;5.618;2023-02-18T11:35:36;18.02;;;12.18;;
59728;SDS011;45588;51.598;5.618;2023-02-18T11:38:02;22.88;;;12.32;;
59728;SDS011;45588;51.598;5.618;2023-02-18T11:40:32;26.60;;;12.68;;
59728;SDS011;45588;51.598;5.618;2023-02-18T11:43:04;21.77;;;13.02;;
59728;SDS011;45588;51.598;5.618;2023-02-18T11:45:31;20.27;;;12.38;;
59728;SDS011;45588;51.598;5.618;2023-02-18T11:48:01;20.80;;;12.40;;
59728;SDS011;45588;51.598;5.618;2023-02-18T11:50:31;21.83;;;12.15;;
59728;SDS011;45588;51.598;5.618;2023-02-18T11:52:56;20.85;;;12.98;;
59728;SDS011;45588;51.598;5.618;2023-02-18T11:55:24;21.25;;;12.90;;
59728;SDS011;45588;51.598;5.618;2023-02-18T12:02:41;17.73;;;7.55;;
59728;SDS011;45588;51.598;5.618;2023-02-18T12:05:20;20.42;;;13.77;;
59728;SDS011;45588;51.598;5.618;2023-02-18T12:07:47;18.10;;;13.95;;
59728;SDS011;45588;51.598;5.618;2023-02-18T12:12:46;23.15;;;13.20;;
59728;SDS011;45588;51.598;5.618;2023-02-18T12:15:19;22.27;;;12.68;;
59728;SDS011;45588;51.598;5.618;2023-02-18T12:22:49;16.45;;;9.93;;
59728;SDS011;45588;51.598;5.618;2023-02-18T12:27:48;16.70;;;8.85;;
59728;SDS011;45588;51.598;5.618;2023-02-18T12:37:57;12.90;;;7.28;;
59728;SDS011;45588;51.598;5.618;2023-02-18T12:42:55;15.60;;;6.88;;
59728;SDS011;45588;51.598;5.618;2023-02-18T12:45:33;13.18;;;5.05;;
59728;SDS011;45588;51.598;5.618;2023-02-18T13:00:40;13.02;;;6.50;;
59728;SDS011;45588;51.598;5.618;2023-02-18T13:03:20;13.45;;;6.82;;
59728;SDS011;45588;51.598;5.618;2023-02-18T13:05:55;13.30;;;7.20;;
59728;SDS011;45588;51.598;5.618;2023-02-18T13:13:16;17.05;;;6.22;;
59728;SDS011;45588;51.598;5.618;2023-02-18T13:15:43;13.77;;;6.13;;
59728;SDS011;45588;51.598;5.618;2023-02-18T13:18:14;14.00;;;6.25;;
59728;SDS011;45588;51.598;5.618;2023-02-18T13:20:50;11.15;;;5.40;;
59728;SDS011;45588;51.598;5.618;2023-02-18T13:23:17;12.07;;;5.82;;
59728;SDS011;45588;51.598;5.618;2023-02-18T13:25:43;13.70;;;5.85;;
59728;SDS011;45588;51.598;5.618;2023-02-18T13:30:51;12.60;;;6.18;;
59728;SDS011;45588;51.598;5.618;2023-02-18T13:33:35;15.60;;;5.63;;
59728;SDS011;45588;51.598;5.618;2023-02-18T13:38:54;13.32;;;6.22;;
59728;SDS011;45588;51.598;5.618;2023-02-18T13:41:20;19.20;;;5.53;;
59728;SDS011;45588;51.598;5.618;2023-02-18T13:43:45;11.48;;;5.60;;
59728;SDS011;45588;51.598;5.618;2023-02-18T13:46:15;10.30;;;5.35;;
59728;SDS011;45588;51.598;5.618;2023-02-18T13:51:08;11.45;;;4.93;;
59728;SDS011;45588;51.598;5.618;2023-02-18T13:53:34;11.15;;;5.50;;
59728;SDS011;45588;51.598;5.618;2023-02-18T13:56:16;10.27;;;6.00;;
59728;SDS011;45588;51.598;5.618;2023-02-18T13:58:47;10.00;;;6.45;;
59728;SDS011;45588;51.598;5.618;2023-02-18T14:01:16;13.18;;;5.32;;
59728;SDS011;45588;51.598;5.618;2023-02-18T14:06:51;16.57;;;6.00;;
59728;SDS011;45588;51.598;5.618;2023-02-18T14:09:33;14.52;;;5.60;;
59728;SDS011;45588;51.598;5.618;2023-02-18T14:11:46;12.13;;;5.75;;
59728;SDS011;45588;51.598;5.618;2023-02-18T14:14:13;13.02;;;5.20;;
59728;SDS011;45588;51.598;5.618;2023-02-18T14:17:11;10.85;;;4.93;;
59728;SDS011;45588;51.598;5.618;2023-02-18T14:19:33;8.98;;;4.75;;
59728;SDS011;45588;51.598;5.618;2023-02-18T14:24:43;10.02;;;4.45;;
59728;SDS011;45588;51.598;5.618;2023-02-18T14:27:14;13.45;;;5.22;;
59728;SDS011;45588;51.598;5.618;2023-02-18T14:29:39;10.75;;;5.63;;
59728;SDS011;45588;51.598;5.618;2023-02-18T14:32:08;17.15;;;6.43;;
59728;SDS011;45588;51.598;5.618;2023-02-18T14:37:17;12.18;;;5.78;;
59728;SDS011;45588;51.598;5.618;2023-02-18T14:40:09;12.98;;;6.22;;
59728;SDS011;45588;51.598;5.618;2023-02-18T14:42:47;10.75;;;4.97;;
59728;SDS011;45588;51.598;5.618;2023-02-18T14:48:04;12.45;;;5.97;;
59728;SDS011;45588;51.598;5.618;2023-02-18T14:50:36;9.63;;;5.07;;
59728;SDS011;45588;51.598;5.618;2023-02-18T14:53:06;14.70;;;5.45;;
59728;SDS011;45588;51.598;5.618;2023-02-18T14:55:35;11.35;;;4.35;;
59728;SDS011;45588;51.598;5.618;2023-02-18T14:58:02;11.55;;;4.53;;
59728;SDS011;45588;51.598;5.618;2023-02-18T15:00:29;14.38;;;4.78;;
59728;SDS011;45588;51.598;5.618;2023-02-18T15:02:58;10.30;;;5.20;;
59728;SDS011;45588;51.598;5.618;2023-02-18T15:05:28;10.05;;;4.47;;
59728;SDS011;45588;51.598;5.618;2023-02-18T15:07:55;11.00;;;4.27;;
59728;SDS011;45588;51.598;5.618;2023-02-18T15:10:20;10.13;;;4.13;;
59728;SDS011;45588;51.598;5.618;2023-02-18T15:12:45;12.43;;;4.30;;
59728;SDS011;45588;51.598;5.618;2023-02-18T15:15:12;9.68;;;4.43;;
59728;SDS011;45588;51.598;5.618;2023-02-18T15:17:40;14.57;;;4.57;;
59728;SDS011;45588;51.598;5.618;2023-02-18T15:20:09;11.20;;;4.20;;
59728;SDS011;45588;51.598;5.618;2023-02-18T15:22:36;10.25;;;3.50;;
59728;SDS011;45588;51.598;5.618;2023-02-18T15:25:01;12.30;;;4.82;;
59728;SDS011;45588;51.598;5.618;2023-02-18T15:27:27;9.45;;;4.20;;
59728;SDS011;45588;51.598;5.618;2023-02-18T15:29:57;12.13;;;4.82;;
59728;SDS011;45588;51.598;5.618;2023-02-18T15:32:23;10.77;;;4.13;;
59728;SDS011;45588;51.598;5.618;2023-02-18T15:34:49;14.35;;;4.50;;
59728;SDS011;45588;51.598;5.618;2023-02-18T15:37:15;15.65;;;4.80;;
59728;SDS011;45588;51.598;5.618;2023-02-18T15:39:41;10.30;;;4.27;;
59728;SDS011;45588;51.598;5.618;2023-02-18T15:42:08;17.70;;;5.45;;
59728;SDS011;45588;51.598;5.618;2023-02-18T15:44:34;12.52;;;4.78;;
59728;SDS011;45588;51.598;5.618;2023-02-18T15:47:02;13.60;;;4.68;;
59728;SDS011;45588;51.598;5.618;2023-02-18T15:49:28;11.43;;;4.72;;
59728;SDS011;45588;51.598;5.618;2023-02-18T15:51:56;11.98;;;5.63;;
59728;SDS011;45588;51.598;5.618;2023-02-18T15:54:22;10.88;;;4.32;;
59728;SDS011;45588;51.598;5.618;2023-02-18T15:56:54;15.70;;;5.80;;
59728;SDS011;45588;51.598;5.618;2023-02-18T16:01:52;12.57;;;4.87;;
59728;SDS011;45588;51.598;5.618;2023-02-18T16:04:19;21.67;;;5.00;;
59728;SDS011;45588;51.598;5.618;2023-02-18T16:06:45;13.30;;;4.07;;
59728;SDS011;45588;51.598;5.618;2023-02-18T16:09:15;9.60;;;4.40;;
59728;SDS011;45588;51.598;5.618;2023-02-18T16:11:42;10.40;;;4.43;;
59728;SDS011;45588;51.598;5.618;2023-02-18T16:17:13;12.77;;;5.15;;
59728;SDS011;45588;51.598;5.618;2023-02-18T16:19:45;14.52;;;5.25;;
59728;SDS011;45588;51.598;5.618;2023-02-18T16:23:12;16.55;;;5.38;;
59728;SDS011;45588;51.598;5.618;2023-02-18T16:27:35;14.05;;;5.38;;
59728;SDS011;45588;51.598;5.618;2023-02-18T16:30:14;14.93;;;4.88;;
59728;SDS011;45588;51.598;5.618;2023-02-18T16:32:40;12.10;;;4.47;;
59728;SDS011;45588;51.598;5.618;2023-02-18T16:35:06;11.05;;;4.60;;
59728;SDS011;45588;51.598;5.618;2023-02-18T16:37:31;13.45;;;4.50;;
59728;SDS011;45588;51.598;5.618;2023-02-18T16:42:27;12.25;;;5.25;;